LEMH/MAH METAR and TAF weather

Enter ICAO airport designator
Station Type Date Time Source
LEMH METAR 2022/12/04 11:00 UTC NOAA

LEMH 041100Z 22012KT 180V250 9999 SCT025 17/11 Q1011


Station Type Date Time Source
LEMH Decoded METAR 2022/12/04 11:00 UTC NOAA

Menorca / Mahon, Spain (LEMH) 39-52N 004-14E 82M
Dec 04, 2022 - 06:00 AM EST / 2022.12.04 1100 UTC
Wind: from the SW (220 degrees) at 14 MPH (12 KT) (direction variable):0
Visibility: greater than 7 mile(s):0
Sky conditions: partly cloudy
Temperature: 62 F (17 C)
Dew Point: 51 F (11 C)
Relative Humidity: 67%
Pressure (altimeter): 29.85 in. Hg (1011 hPa)
ob: LEMH 041100Z 22012KT 180V250 9999 SCT025 17/11 Q1011
cycle: 11

Station Type Date Time Source
LEMH TAF 2022/12/04 09:27 UTC NOAA

TAF LEMH 040800Z 0409/0509 21008KT 9999 SCT025 TX17/0412Z TN10/0506Z
TEMPO 0410/0418 22014G24KT PROB30
TEMPO 0409/0420 4000 TSRA FEW025CB

Example: see airport list